Kivalina, AK

3:04 PM AKDT on September 19, 2014 (GMT -0800)
Noatak | Change Station
CLOSE
Current Station
Airport
Location: Noatak,
Elevation: 85 ft
Nearby Weather Stations

Elev 85 ft 67.57 °N, 162.98 °W | Updated 8 minutes ago

Clear
Clear
50 °F
Feels Like 50 °F
N
12
Wind Variable Wind from NNE

Today
High -- | Low -- °F
--% Chance of Precip.
Yesterday
High -- | Low -- °F
Precip. -- in
8:30 AM 9:11 PM
Waning Crescent, 16% visible
Pressure 29.43 in
Visibility 10.0 miles
Clouds Clear
Dew Point 34 °F
Humidity 54%
Rainfall 0.00 in
Snow Depth 0 in , 2 in , 12 in
UV 2 out of 12
Pollen Not available.
Air Quality Not available.
Flu Activity Not available.
METAR PAWN 192256Z AUTO 02010KT 10SM CLR 10/01 A2943 RMK AO1

More Conditions Fewer Conditions

Pressure 29.43 in
Visibility 10.0 miles
Clouds Clear
Dew Point 34 °F
Humidity 54%
Rainfall 0.00 in
Snow Depth 0 in , 2 in , 12 in
UV 2 out of 12
Pollen Not available.
Air Quality Not available.
Flu Activity Not available.
METAR PAWN 192256Z AUTO 02010KT 10SM CLR 10/01 A2943 RMK AO1

More Conditions Fewer Conditions

10-Day Weather Forecast

Almanac

Astronomy

Sep. 19, 2014 Rise Set
Actual Time 8:30 AM AKDT 9:11 PM AKDT
Civil Twilight 7:34 AM AKDT 10:07 PM AKDT
Nautical Twilight 6:22 AM AKDT 11:17 PM AKDT
Astronomical Twilight 4:47 AM AKDT 12:49 AM AKDT
Moon 2:51 AM AKDT 8:05 PM AKDT
Length of Visible Light 14h 33m
Length of Day
12h 41m
Tomorrow will be 7m 37s shorter.
Waning Crescent, 16% of the Moon is Illuminated
Today
Waning Crescent
Sep 24
New
Oct 1
First Quarter
Oct 8
Full
Oct 15
Last Quarter

Today's Extremes

State Highs State Lows

Community

WunderPhotos

Upload Photos

1,754,724 photos uploaded!

WunderBlogs® & News

By Dr. Jeff Masters
Director of Meteorology, Weather Underground
By Kari Strenfel
Meteorologist, Weather Underground
By Christopher C. Burt
Weather Historian, Weather Underground
September 19, 2014
September 19, 2014
September 19, 2014

Nearby

Snow Depth

Station Depth Elevation
Pargon Creek 0 in 300 ft
Atigun Pass 2 in 4800 ft
Cooper Lake 12 in 1200 ft
Upper Chena 1 in 2850 ft
Susitna Valley High 1 in 375 ft

Earthquake Activity

City Distance Mag. Time & Date
No recent earthquake activity has been reported nearby.
Minimum magnitude displayed is 2.5.

Coastal Water Temperatures

Place Temperature
No Stations Reporting

Nearby Weather Stations